createdAt,value
2018-05-29T00:00:24.730Z,25.20
2018-05-29T00:02:54.354Z,25.20
2018-05-29T00:05:22.567Z,25.20
2018-05-29T00:10:21.148Z,25.10
2018-05-29T00:12:49.132Z,25.10
2018-05-29T00:15:19.611Z,25.10
2018-05-29T00:17:47.868Z,25.00
2018-05-29T00:20:16.809Z,24.90
2018-05-29T00:25:15.262Z,24.90
2018-05-29T00:27:43.444Z,24.90
2018-05-29T00:30:13.419Z,24.80
2018-05-29T00:32:42.743Z,24.80
2018-05-29T00:35:10.715Z,24.80
2018-05-29T00:37:39.005Z,24.70
2018-05-29T00:55:37.157Z,24.10
2018-05-29T00:58:08.034Z,24.20
2018-05-29T01:00:36.489Z,24.30
2018-05-29T01:03:06.500Z,24.40
2018-05-29T01:05:34.818Z,24.40
2018-05-29T01:08:04.690Z,24.40
2018-05-29T01:10:32.744Z,24.40
2018-05-29T01:13:01.585Z,24.40
2018-05-29T01:15:30.560Z,24.40
2018-05-29T01:17:59.448Z,24.20
2018-05-29T01:20:27.566Z,24.20
2018-05-29T01:25:28.040Z,24.10
2018-05-29T01:27:57.624Z,24.00
2018-05-29T01:30:25.929Z,24.00
2018-05-29T01:37:52.871Z,24.10
2018-05-29T01:40:20.968Z,24.10
2018-05-29T01:45:19.258Z,24.00
2018-05-29T01:50:17.480Z,23.90
2018-05-29T01:55:16.414Z,23.90
2018-05-29T06:48:28.326Z,24.70
2018-05-29T06:51:00.156Z,24.80
2018-05-29T06:53:31.110Z,24.90
2018-05-29T06:56:00.992Z,25.00
2018-05-29T06:58:32.567Z,25.10
2018-05-29T07:01:04.556Z,25.10
2018-05-29T07:03:34.855Z,25.10
2018-05-29T07:06:06.474Z,25.20
2018-05-29T07:08:37.100Z,25.30
2018-05-29T07:11:09.264Z,25.30
2018-05-29T07:13:39.589Z,25.40
2018-05-29T07:16:12.085Z,25.50
2018-05-29T07:18:43.006Z,25.50
2018-05-29T07:21:14.565Z,25.60
2018-05-29T07:23:44.850Z,25.60
2018-05-29T07:26:14.836Z,25.70
2018-05-29T07:28:46.147Z,25.80
2018-05-29T07:31:17.477Z,25.80
2018-05-29T07:49:58.111Z,25.80
2018-05-29T07:52:28.772Z,26.00
2018-05-29T07:55:00.483Z,26.20
2018-05-29T07:57:31.994Z,26.30
2018-05-29T08:00:01.739Z,26.40
2018-05-29T08:02:31.691Z,26.50
2018-05-29T08:05:01.506Z,26.60
2018-05-29T08:07:31.510Z,26.70
2018-05-29T08:10:02.271Z,26.70
2018-05-29T08:12:32.011Z,26.70
2018-05-29T08:15:03.380Z,26.80
2018-05-29T08:17:34.508Z,26.90
2018-05-29T08:36:14.995Z,26.30
2018-05-29T08:51:40.873Z,26.70
2018-05-29T08:54:13.020Z,27.30
2018-05-29T08:56:43.866Z,27.00
2018-05-29T08:59:12.909Z,27.40
2018-05-29T09:01:43.697Z,27.10
2018-05-29T09:13:55.200Z,27.40
2018-05-29T09:29:20.965Z,27.70
2018-05-29T09:31:53.508Z,27.60
2018-05-29T09:36:57.771Z,28.30
2018-05-29T09:39:29.630Z,28.00
2018-05-29T09:41:58.556Z,28.00
2018-05-29T09:57:26.258Z,28.30
2018-05-29T09:59:57.703Z,28.30
2018-05-29T10:02:29.364Z,28.30
2018-05-29T10:05:01.243Z,28.40
2018-05-29T10:07:33.020Z,28.60
2018-05-29T10:10:03.142Z,28.70
2018-05-29T10:12:35.682Z,28.60
2018-05-29T10:15:08.382Z,28.80
2018-05-29T10:17:40.218Z,29.00
2018-05-29T10:20:11.938Z,29.10
2018-05-29T10:25:14.556Z,29.20
2018-05-29T10:39:58.816Z,29.40
2018-05-29T10:42:30.294Z,29.60
2018-05-29T10:57:57.699Z,30.40
2018-05-29T11:00:28.525Z,30.60
2018-05-29T11:02:59.387Z,30.80
2018-05-29T11:49:22.847Z,38.20
2018-05-29T11:51:55.437Z,38.20
2018-05-29T11:54:26.883Z,38.80
2018-05-29T11:56:59.973Z,39.70
2018-05-29T11:59:31.088Z,40.00
2018-05-29T12:02:03.163Z,40.00
2018-05-29T12:04:33.158Z,40.00
2018-05-29T12:07:05.275Z,40.00
2018-05-29T12:09:37.025Z,40.20
2018-05-29T12:12:19.581Z,39.90
2018-05-29T12:38:31.537Z,41.90
2018-05-29T12:41:03.113Z,41.70
2018-05-29T12:43:33.677Z,42.30
2018-05-29T12:59:00.216Z,36.00
2018-05-29T13:01:31.106Z,35.10
2018-05-29T13:04:03.619Z,34.20
2018-05-29T13:06:34.722Z,33.70
2018-05-29T13:09:06.877Z,33.30
2018-05-29T13:14:10.605Z,32.80
2018-05-29T13:36:05.083Z,32.40
2018-05-29T13:38:36.934Z,32.60
2018-05-29T13:41:11.072Z,33.20
2018-05-29T13:43:41.495Z,34.10
2018-05-29T13:46:11.355Z,35.30
2018-05-29T13:48:42.908Z,37.00
2018-05-29T13:51:15.343Z,38.60
2018-05-29T14:09:55.350Z,38.10
2018-05-29T14:12:26.913Z,38.50
2018-05-29T14:14:58.588Z,38.90
2018-05-29T14:17:29.617Z,37.80
2018-05-29T14:43:38.030Z,35.60
2018-05-29T14:46:10.914Z,35.00
2018-05-29T14:48:44.137Z,34.20
2018-05-29T14:51:14.715Z,33.30
2018-05-29T15:06:40.915Z,31.40
2018-05-29T15:09:13.051Z,31.30
2018-05-29T15:11:44.314Z,31.20
2018-05-29T15:14:16.200Z,31.10
2018-05-29T15:29:43.225Z,30.70
2018-05-29T15:32:14.968Z,30.60
2018-05-29T15:34:46.919Z,30.50
2018-05-29T15:37:17.366Z,30.50
2018-05-29T15:39:47.855Z,30.50
2018-05-29T15:42:18.310Z,30.40
2018-05-29T15:54:00.182Z,29.40
2018-05-29T16:12:42.641Z,29.10
2018-05-29T16:37:50.778Z,27.40
2018-05-29T17:10:14.896Z,25.10
2018-05-29T17:15:13.812Z,25.00
2018-05-29T17:20:13.681Z,24.80
2018-05-29T17:22:42.893Z,24.20
2018-05-29T17:34:58.928Z,23.50
2018-05-29T17:58:39.892Z,24.00
2018-05-29T18:38:45.933Z,23.90
2018-05-29T18:41:16.604Z,24.00
2018-05-29T18:43:46.346Z,23.90
2018-05-29T19:21:28.997Z,23.40
2018-05-29T19:46:33.291Z,23.50
2018-05-29T19:49:04.202Z,23.50
2018-05-29T19:51:36.225Z,23.50
2018-05-29T19:54:07.434Z,23.40
2018-05-29T19:56:37.432Z,23.40
2018-05-29T20:12:04.881Z,22.80
2018-05-29T20:14:35.606Z,23.10
2018-05-29T20:17:08.530Z,23.20
2018-05-29T20:19:40.875Z,23.20
2018-05-29T20:24:46.064Z,23.30
2018-05-29T20:27:18.139Z,23.30
2018-05-29T20:29:50.254Z,23.30
2018-05-29T20:32:21.443Z,23.30
2018-05-29T20:34:54.400Z,23.20
2018-05-29T20:53:35.899Z,22.40
2018-05-29T20:56:06.194Z,22.50
2018-05-29T20:58:35.865Z,22.60
